Kruunupyy Airport


Codes: EFKK/KOK
Name: Kruunupyy Airport
City: Kokkola / Kruunupyy
Country: Finland
Elevation: 84 ft.
Wikipedia:

Photos at Kruunupyy Airport


   Photos courtesy of SpottingLog. You can add your own sightings and photos by signing up for a free trial today.



No photos found.

Weather at Kruunupyy Airport


Time (UTC)DescriptionTempratureWindCloud coverageVisibilityPressureHumidity
15-Apr-2024 18:00Broken Clouds3°C9 mph, N83%10000m1000hPa75%
15-Apr-2024 21:00Overcast Clouds2°C7 mph, N92%10000m1000hPa83%
16-Apr-2024 00:00Overcast Clouds0°C9 mph, N100%10000m1000hPa95%
16-Apr-2024 03:00Overcast Clouds-0°C9 mph, N100%1463m1000hPa96%
16-Apr-2024 06:00Light Snow0°C9 mph, N100%7991m1000hPa90%
16-Apr-2024 09:00Light Snow1°C11 mph, N100%10000m1000hPa82%
16-Apr-2024 12:00Light Snow2°C7 mph, N100%10000m1001hPa86%
16-Apr-2024 15:00Light Snow2°C7 mph, N100%201m1001hPa97%
16-Apr-2024 18:00Light Snow2°C9 mph, NE100%10000m1002hPa87%
16-Apr-2024 21:00Overcast Clouds-0°C9 mph, NE100%10000m1003hPa86%
17-Apr-2024 00:00Light Snow-2°C9 mph, NE100%1791m1004hPa90%
17-Apr-2024 03:00Light Snow-3°C9 mph, NE100%236m1004hPa92%
17-Apr-2024 06:00Light Snow-3°C11 mph, NE100%474m1006hPa86%
17-Apr-2024 09:00Light Snow-3°C11 mph, NE100%6769m1007hPa79%
17-Apr-2024 12:00Overcast Clouds-1°C13 mph, NE100%10000m1008hPa54%
17-Apr-2024 15:00Overcast Clouds-1°C11 mph, N100%10000m1010hPa59%
17-Apr-2024 18:00Overcast Clouds-3°C9 mph, NE100%10000m1011hPa69%
17-Apr-2024 21:00Overcast Clouds-4°C9 mph, NE100%10000m1013hPa66%
18-Apr-2024 00:00Overcast Clouds-4°C7 mph, NE100%10000m1014hPa60%
18-Apr-2024 03:00Overcast Clouds-4°C7 mph, NE100%10000m1015hPa58%
18-Apr-2024 06:00Overcast Clouds-4°C9 mph, NE100%10000m1017hPa49%
18-Apr-2024 09:00Overcast Clouds-2°C9 mph, N92%10000m1017hPa42%
18-Apr-2024 12:00Broken Clouds-0°C11 mph, N74%10000m1018hPa46%
18-Apr-2024 15:00Overcast Clouds-1°C9 mph, N94%10000m1018hPa57%
18-Apr-2024 18:00Overcast Clouds-3°C4 mph, NE95%10000m1019hPa73%
18-Apr-2024 21:00Broken Clouds-5°C4 mph, E84%10000m1019hPa83%
19-Apr-2024 00:00Broken Clouds-5°C4 mph, NE53%10000m1018hPa84%
19-Apr-2024 03:00Few Clouds-6°C7 mph, NE13%10000m1017hPa85%
19-Apr-2024 06:00Few Clouds-4°C9 mph, NE12%10000m1016hPa58%
19-Apr-2024 09:00Scattered Clouds-2°C9 mph, NE47%10000m1014hPa43%
19-Apr-2024 12:00Broken Clouds0°C11 mph, NE60%10000m1012hPa42%
19-Apr-2024 15:00Broken Clouds-0°C11 mph, NE81%10000m1011hPa52%
19-Apr-2024 18:00Overcast Clouds-3°C9 mph, NE91%10000m1010hPa68%
19-Apr-2024 21:00Overcast Clouds-4°C11 mph, NE100%10000m1008hPa71%
20-Apr-2024 00:00Overcast Clouds-5°C11 mph, NE100%10000m1006hPa72%
20-Apr-2024 03:00Light Snow-6°C11 mph, N100%3003m1005hPa84%
20-Apr-2024 06:00Light Snow-5°C13 mph, N100%10000m1005hPa77%
20-Apr-2024 09:00Light Snow-4°C13 mph, N100%10000m1005hPa74%
20-Apr-2024 12:00Light Snow-2°C13 mph, N100%10000m1007hPa66%
20-Apr-2024 15:00Overcast Clouds-1°C11 mph, NW100%10000m1008hPa66%